Time;durP1;ratioP1;P1;durP2;ratioP2;P2;SDS_P1;SDS_P2;PMS_P1;PMS_P2;Temp;Humidity;BMP_temperature;BMP_pressure;BME280_temperature;BME280_humidity;BME280_pressure;Samples;Min_cycle;Max_cycle;Signal;HPM_P1;HPM_P2
2020/12/16 00:00:51;;;;;;;32.50;16.15;;;9.10;57.20;;;;;;5051317;28;20052;-76
2020/12/16 00:03:17;;;;;;;36.40;18.08;;;9.20;57.30;;;;;;5052475;28;20048;-75
2020/12/16 00:05:43;;;;;;;38.65;18.55;;;9.20;57.30;;;;;;5052222;28;20033;-76
2020/12/16 00:08:08;;;;;;;40.80;19.63;;;9.20;57.20;;;;;;5053105;28;20116;-75
2020/12/16 00:10:35;;;;;;;38.78;17.75;;;9.10;57.10;;;;;;5050938;28;20024;-75
2020/12/16 00:13:03;;;;;;;35.97;17.77;;;9.10;57.10;;;;;;5050485;28;20428;-77
2020/12/16 00:15:29;;;;;;;28.65;14.20;;;9.10;57.10;;;;;;5052047;28;20029;-76
2020/12/16 00:17:55;;;;;;;27.33;15.35;;;9.10;57.20;;;;;;5051971;28;20029;-77
2020/12/16 00:20:21;;;;;;;29.50;15.30;;;9.10;57.20;;;;;;5052200;28;20025;-75
2020/12/16 00:22:47;;;;;;;29.60;14.85;;;9.10;57.20;;;;;;5052253;28;20029;-76
2020/12/16 00:25:13;;;;;;;29.73;14.38;;;9.10;57.20;;;;;;5060856;28;20063;-76
2020/12/16 00:27:39;;;;;;;34.83;16.35;;;9.10;57.30;;;;;;5052443;28;20094;-76
2020/12/16 00:30:07;;;;;;;46.50;22.05;;;9.10;57.20;;;;;;5053844;28;20025;-77
2020/12/16 00:32:39;;;;;;;52.22;24.20;;;9.20;57.30;;;;;;5052684;28;20059;-77
2020/12/16 00:35:07;;;;;;;61.25;27.98;;;9.20;57.20;;;;;;5035987;28;20017;-76
2020/12/16 00:37:37;;;;;;;61.08;27.55;;;9.20;57.10;;;;;;5045417;28;20493;-76
2020/12/16 00:40:08;;;;;;;62.03;28.55;;;9.10;57.00;;;;;;5044189;28;20029;-76
2020/12/16 00:42:34;;;;;;;65.57;28.60;;;9.10;57.00;;;;;;5056299;28;20017;-75
2020/12/16 00:45:01;;;;;;;68.00;30.15;;;9.20;57.00;;;;;;5049220;28;20080;-76
2020/12/16 00:47:27;;;;;;;61.58;27.45;;;9.20;57.00;;;;;;5037112;28;20112;-75
2020/12/16 00:49:52;;;;;;;58.67;26.67;;;9.10;56.90;;;;;;5040440;28;20112;-75
2020/12/16 00:52:19;;;;;;;62.60;28.42;;;9.20;57.00;;;;;;5045575;28;20107;-76
2020/12/16 00:54:45;;;;;;;74.00;32.72;;;9.20;57.00;;;;;;5035392;28;20052;-76
2020/12/16 00:57:11;;;;;;;64.22;28.35;;;9.20;57.00;;;;;;5051632;28;20102;-75
2020/12/16 00:59:36;;;;;;;73.97;32.22;;;9.20;57.00;;;;;;5051808;28;20455;-76
2020/12/16 01:02:04;;;;;;;91.82;37.55;;;9.20;57.00;;;;;;5052003;28;20763;-75
2020/12/16 01:04:30;;;;;;;97.22;43.03;;;9.20;57.60;;;;;;5051405;28;20029;-76
2020/12/16 01:06:56;;;;;;;105.03;43.28;;;9.20;57.00;;;;;;5048186;28;20029;-76
2020/12/16 01:09:21;;;;;;;101.85;41.95;;;9.20;57.00;;;;;;5037390;28;20021;-75
2020/12/16 01:11:47;;;;;;;83.40;39.70;;;9.20;57.00;;;;;;5044752;28;20021;-77
2020/12/16 01:14:13;;;;;;;87.25;38.00;;;9.20;57.00;;;;;;5048052;28;20029;-76
2020/12/16 01:16:39;;;;;;;88.68;37.10;;;9.20;57.00;;;;;;5055147;28;20041;-76
2020/12/16 01:19:06;;;;;;;99.05;41.00;;;9.20;57.10;;;;;;5038602;28;20466;-75
2020/12/16 01:21:37;;;;;;;96.35;39.97;;;9.10;56.80;;;;;;5053919;28;20386;-76
2020/12/16 01:24:06;;;;;;;87.75;36.80;;;9.10;56.70;;;;;;5043486;28;20098;-75
2020/12/16 01:26:51;;;;;;;99.88;39.60;;;9.10;56.70;;;;;;5054029;28;20054;-76
2020/12/16 01:29:17;;;;;;;93.78;37.97;;;9.00;56.80;;;;;;5040483;28;20028;-76
2020/12/16 01:31:46;;;;;;;95.63;38.72;;;9.00;56.80;;;;;;5054897;28;20021;-76
2020/12/16 01:34:13;;;;;;;90.47;37.28;;;8.90;56.90;;;;;;5042328;28;20108;-76
2020/12/16 01:36:40;;;;;;;80.50;33.95;;;8.90;57.00;;;;;;5051661;28;20036;-75
2020/12/16 01:39:08;;;;;;;87.05;37.25;;;8.90;57.10;;;;;;5053810;28;20021;-77
2020/12/16 01:41:38;;;;;;;90.22;37.97;;;8.90;57.20;;;;;;5054804;28;20014;-76
2020/12/16 01:44:14;;;;;;;84.97;37.40;;;8.80;57.20;;;;;;5043047;28;20034;-76
2020/12/16 01:46:57;;;;;;;91.28;40.63;;;8.80;57.80;;;;;;5049724;28;20073;-75
2020/12/16 01:49:24;;;;;;;93.40;39.08;;;8.70;57.20;;;;;;5040625;28;20497;-75
2020/12/16 01:51:53;;;;;;;86.00;33.63;;;8.70;57.20;;;;;;5044828;28;20032;-75
2020/12/16 01:54:21;;;;;;;76.22;33.65;;;8.60;57.10;;;;;;5048328;28;20028;-77
2020/12/16 01:56:50;;;;;;;72.05;31.05;;;8.60;57.20;;;;;;5047339;28;20033;-76
2020/12/16 01:59:17;;;;;;;69.10;29.05;;;8.50;57.10;;;;;;5053049;28;20017;-76
2020/12/16 02:01:45;;;;;;;54.90;25.95;;;8.40;57.10;;;;;;5045729;28;20029;-74
2020/12/16 02:04:19;;;;;;;66.32;27.50;;;8.40;57.10;;;;;;5046902;28;20028;-75
2020/12/16 02:06:45;;;;;;;53.17;24.40;;;8.30;57.20;;;;;;5037786;28;20044;-76
2020/12/16 02:09:11;;;;;;;63.90;27.38;;;8.20;57.20;;;;;;5049931;28;20553;-75
2020/12/16 02:11:39;;;;;;;55.97;25.23;;;8.10;57.30;;;;;;5042166;28;20021;-76
2020/12/16 02:14:07;;;;;;;48.17;22.27;;;8.10;57.40;;;;;;5054004;28;20028;-76
2020/12/16 02:16:35;;;;;;;46.75;21.05;;;8.00;57.40;;;;;;5052700;28;20386;-76
2020/12/16 02:19:01;;;;;;;54.00;24.63;;;8.00;57.50;;;;;;5037470;28;20060;-76
2020/12/16 02:21:28;;;;;;;45.03;20.95;;;7.90;57.50;;;;;;5046639;28;20021;-76
2020/12/16 02:24:06;;;;;;;49.08;22.73;;;7.90;57.60;;;;;;5045234;28;20351;-75
2020/12/16 02:26:37;;;;;;;52.40;23.80;;;7.80;57.80;;;;;;5058119;28;20029;-75
2020/12/16 02:29:04;;;;;;;53.33;23.65;;;7.70;58.00;;;;;;5040178;28;20063;-76
2020/12/16 02:31:33;;;;;;;54.33;23.00;;;7.70;58.30;;;;;;5053786;28;20356;-76
2020/12/16 02:33:59;;;;;;;52.13;24.88;;;7.70;58.60;;;;;;5042795;28;20088;-76
2020/12/16 02:36:25;;;;;;;46.47;20.23;;;7.70;58.80;;;;;;5048194;28;20021;-75
2020/12/16 02:38:51;;;;;;;44.35;21.88;;;7.70;58.80;;;;;;5053360;28;20393;-76
2020/12/16 02:41:18;;;;;;;43.97;20.83;;;7.80;58.90;;;;;;5062626;28;20429;-76
2020/12/16 02:43:44;;;;;;;35.20;18.33;;;7.80;58.90;;;;;;5054538;28;20033;-76
2020/12/16 02:46:10;;;;;;;28.08;15.07;;;7.90;58.90;;;;;;5053462;28;20382;-75
2020/12/16 02:48:36;;;;;;;29.30;14.68;;;7.90;58.90;;;;;;5037411;28;20112;-77
2020/12/16 02:51:02;;;;;;;25.00;13.95;;;8.00;58.90;;;;;;5048727;28;20129;-76
2020/12/16 02:53:28;;;;;;;27.25;15.25;;;8.00;58.80;;;;;;5050673;28;20525;-76
2020/12/16 02:55:54;;;;;;;33.28;16.55;;;8.10;58.80;;;;;;5055248;28;20033;-76
2020/12/16 02:58:20;;;;;;;26.50;14.18;;;8.10;58.60;;;;;;5055211;28;20023;-76
2020/12/16 03:00:47;;;;;;;26.73;14.13;;;8.20;58.60;;;;;;5048112;28;20022;-76
2020/12/16 03:03:13;;;;;;;34.38;17.77;;;8.20;58.60;;;;;;5040634;28;20044;-75
2020/12/16 03:05:39;;;;;;;29.60;15.57;;;8.20;58.50;;;;;;5038927;28;20030;-76
2020/12/16 03:08:07;;;;;;;30.95;15.38;;;8.30;58.50;;;;;;5032367;28;20053;-75
2020/12/16 03:10:35;;;;;;;38.63;19.92;;;8.30;58.40;;;;;;5031924;28;20545;-74
2020/12/16 03:13:01;;;;;;;45.90;21.23;;;8.40;58.90;;;;;;5047580;28;20160;-76
2020/12/16 03:15:27;;;;;;;35.85;17.25;;;8.40;58.20;;;;;;5053104;28;20472;-77
2020/12/16 03:17:52;;;;;;;30.58;16.08;;;8.40;58.00;;;;;;5053256;28;20102;-76
2020/12/16 03:20:18;;;;;;;32.88;16.52;;;8.40;57.90;;;;;;5053100;28;20514;-75
2020/12/16 03:22:44;;;;;;;29.08;15.73;;;8.50;58.00;;;;;;5053161;28;20043;-75
2020/12/16 03:25:09;;;;;;;32.70;17.85;;;8.40;57.90;;;;;;5051589;28;20071;-76
2020/12/16 03:27:36;;;;;;;35.03;19.35;;;8.40;57.70;;;;;;5053125;28;20021;-75
2020/12/16 03:30:03;;;;;;;34.45;16.83;;;8.40;57.70;;;;;;5053050;28;20104;-75
2020/12/16 03:32:29;;;;;;;34.72;18.42;;;8.40;57.70;;;;;;5051458;28;20082;-76
2020/12/16 03:34:54;;;;;;;35.28;16.70;;;8.30;57.60;;;;;;5052932;28;20406;-76
2020/12/16 03:37:20;;;;;;;31.15;16.50;;;8.30;57.60;;;;;;5050711;28;20309;-76
2020/12/16 03:39:46;;;;;;;31.70;16.63;;;8.30;57.70;;;;;;5052465;28;20029;-76
2020/12/16 03:42:12;;;;;;;32.75;17.48;;;8.20;57.70;;;;;;5052809;28;20017;-75
2020/12/16 03:44:37;;;;;;;34.80;16.65;;;8.20;57.80;;;;;;5052899;28;20104;-76
2020/12/16 03:47:03;;;;;;;36.30;17.73;;;8.10;57.90;;;;;;5051402;28;20025;-76
2020/12/16 03:49:29;;;;;;;35.42;17.75;;;8.10;57.90;;;;;;5052639;28;20028;-75
2020/12/16 03:51:56;;;;;;;33.00;15.75;;;8.00;57.90;;;;;;5051378;28;20032;-76
2020/12/16 03:54:22;;;;;;;27.33;15.05;;;8.00;57.90;;;;;;5033729;28;20071;-74
2020/12/16 03:56:48;;;;;;;24.55;14.35;;;8.00;57.90;;;;;;5032702;28;20021;-75
2020/12/16 03:59:14;;;;;;;26.65;15.77;;;7.90;57.90;;;;;;5031363;28;20033;-75
2020/12/16 04:01:40;;;;;;;26.77;14.88;;;7.90;58.00;;;;;;5032687;28;20034;-75
2020/12/16 04:04:06;;;;;;;26.98;14.80;;;7.90;58.10;;;;;;5047951;28;20103;-76
2020/12/16 04:06:31;;;;;;;24.10;14.10;;;7.80;58.10;;;;;;5055951;28;20017;-75
2020/12/16 04:08:57;;;;;;;27.98;13.93;;;7.80;58.20;;;;;;5051213;28;20441;-76
2020/12/16 04:11:23;;;;;;;21.00;11.68;;;7.80;58.30;;;;;;5052403;28;20394;-75
2020/12/16 04:13:49;;;;;;;24.73;14.05;;;7.70;58.30;;;;;;5051141;28;20387;-76
2020/12/16 04:16:18;;;;;;;25.92;14.73;;;7.70;58.50;;;;;;5052387;28;20449;-75
2020/12/16 04:18:44;;;;;;;27.17;14.98;;;7.70;58.60;;;;;;5052737;28;20374;-75
2020/12/16 04:21:10;;;;;;;30.92;16.02;;;7.70;58.70;;;;;;5052393;28;20056;-76
2020/12/16 04:23:37;;;;;;;23.17;14.00;;;7.70;58.80;;;;;;5052277;28;20032;-76
2020/12/16 04:26:03;;;;;;;26.35;14.18;;;7.70;58.90;;;;;;5052205;28;20037;-76
2020/12/16 04:28:29;;;;;;;28.85;16.52;;;7.70;58.80;;;;;;5052342;28;20365;-75
2020/12/16 04:30:55;;;;;;;31.55;17.63;;;7.60;58.90;;;;;;5052381;28;20029;-75
2020/12/16 04:33:21;;;;;;;26.25;15.32;;;7.60;59.00;;;;;;5052205;28;20029;-75
2020/12/16 04:35:47;;;;;;;22.25;13.50;;;7.60;58.90;;;;;;5052067;28;20505;-75
2020/12/16 04:38:13;;;;;;;26.83;14.88;;;7.60;58.90;;;;;;5052187;28;20025;-75
2020/12/16 04:40:39;;;;;;;30.50;16.55;;;7.70;59.10;;;;;;5052054;28;20035;-75
2020/12/16 04:43:08;;;;;;;36.95;18.52;;;7.70;59.10;;;;;;5052167;28;20029;-75
2020/12/16 04:45:37;;;;;;;32.20;16.38;;;7.70;59.30;;;;;;5053967;28;20123;-75
2020/12/16 04:48:08;;;;;;;32.00;16.13;;;7.70;59.30;;;;;;5054795;28;20021;-76
2020/12/16 04:50:34;;;;;;;37.03;20.38;;;7.70;59.30;;;;;;5054567;28;20040;-75
2020/12/16 04:53:03;;;;;;;32.60;18.15;;;7.70;59.50;;;;;;5048110;28;20032;-76
2020/12/16 04:55:29;;;;;;;30.35;16.13;;;7.60;59.40;;;;;;5035799;28;20079;-76
2020/12/16 04:57:55;;;;;;;35.75;17.83;;;7.70;59.40;;;;;;5051225;28;20021;-76
2020/12/16 05:00:22;;;;;;;28.90;16.25;;;7.70;59.50;;;;;;5035797;28;20052;-75
2020/12/16 05:03:00;;;;;;;30.50;16.40;;;7.60;59.40;;;;;;5051236;28;20451;-74
2020/12/16 05:05:26;;;;;;;29.00;16.80;;;7.70;59.50;;;;;;5051021;28;20033;-76
2020/12/16 05:07:52;;;;;;;32.05;18.48;;;7.70;59.50;;;;;;5035724;28;20048;-76
2020/12/16 05:10:36;;;;;;;27.75;15.73;;;7.70;59.50;;;;;;5051945;28;20025;-75
2020/12/16 05:13:10;;;;;;;36.92;20.00;;;7.70;59.50;;;;;;5054408;28;20025;-76
2020/12/16 05:15:37;;;;;;;33.72;18.10;;;7.70;59.50;;;;;;5054317;28;20124;-74
2020/12/16 05:18:07;;;;;;;36.00;19.88;;;7.70;59.50;;;;;;5054202;28;20151;-74
2020/12/16 05:20:34;;;;;;;33.47;18.85;;;7.70;59.60;;;;;;5054086;28;20021;-75
2020/12/16 05:23:02;;;;;;;31.33;16.23;;;7.70;59.50;;;;;;5055378;28;20035;-76
2020/12/16 05:25:28;;;;;;;29.77;16.98;;;7.70;59.50;;;;;;5053876;28;20110;-76
2020/12/16 05:27:54;;;;;;;30.35;17.77;;;7.70;59.40;;;;;;5055339;28;20021;-75
2020/12/16 05:30:20;;;;;;;38.60;20.38;;;7.70;59.30;;;;;;5054016;28;20423;-75
2020/12/16 05:32:46;;;;;;;36.55;20.75;;;7.70;59.30;;;;;;5055212;28;20048;-75
2020/12/16 05:35:40;;;;;;;38.17;21.52;;;7.70;59.30;;;;;;5053779;28;20100;-76
2020/12/16 05:38:10;;;;;;;39.03;21.98;;;7.70;59.40;;;;;;5054021;28;20033;-76
2020/12/16 05:40:40;;;;;;;40.08;21.30;;;7.70;59.40;;;;;;5055102;28;20021;-75
2020/12/16 05:43:07;;;;;;;40.40;22.50;;;7.70;60.00;;;;;;5055033;28;20060;-74
2020/12/16 05:45:38;;;;;;;36.35;20.00;;;7.70;59.40;;;;;;5054954;28;20020;-76
2020/12/16 05:48:07;;;;;;;41.03;22.25;;;7.70;59.50;;;;;;5053656;28;20053;-75
2020/12/16 05:50:37;;;;;;;33.60;19.75;;;7.70;59.50;;;;;;5054826;28;20055;-76
2020/12/16 05:53:08;;;;;;;31.40;17.30;;;7.70;59.50;;;;;;5046588;28;20028;-76
2020/12/16 05:55:34;;;;;;;34.83;18.55;;;7.70;60.10;;;;;;5034654;28;20024;-75
2020/12/16 05:58:07;;;;;;;28.38;16.48;;;7.80;59.50;;;;;;5034875;28;20112;-76
2020/12/16 06:00:53;;;;;;;33.58;18.55;;;7.80;59.50;;;;;;5034723;28;20518;-76
2020/12/16 06:03:23;;;;;;;32.75;18.20;;;7.80;59.50;;;;;;5050132;28;20095;-75
2020/12/16 06:05:55;;;;;;;30.40;16.77;;;7.80;59.40;;;;;;5034567;28;20048;-75
2020/12/16 06:08:22;;;;;;;38.42;18.63;;;7.80;59.40;;;;;;5045962;28;20030;-76
2020/12/16 06:10:49;;;;;;;31.25;17.70;;;7.90;59.40;;;;;;5053180;28;20051;-75
2020/12/16 06:13:16;;;;;;;33.95;17.65;;;7.90;59.40;;;;;;5054338;28;20501;-76
2020/12/16 06:15:53;;;;;;;30.90;16.25;;;7.90;59.30;;;;;;5054225;28;20029;-75
2020/12/16 06:18:22;;;;;;;23.08;13.80;;;7.90;59.30;;;;;;5054329;28;20493;-75
2020/12/16 06:20:48;;;;;;;29.20;16.52;;;8.00;59.40;;;;;;5053020;28;20111;-76
2020/12/16 06:23:35;;;;;;;31.08;17.75;;;8.00;59.30;;;;;;5054133;28;20124;-76
2020/12/16 06:26:03;;;;;;;32.33;17.08;;;8.00;59.20;;;;;;5054025;28;20056;-76
2020/12/16 06:28:29;;;;;;;27.15;15.85;;;8.00;59.20;;;;;;5052855;28;20032;-76
2020/12/16 06:31:02;;;;;;;25.55;14.88;;;8.10;59.10;;;;;;5054331;28;20017;-75
2020/12/16 06:33:51;;;;;;;30.90;17.25;;;8.10;59.10;;;;;;5054138;28;20490;-75
2020/12/16 06:36:18;;;;;;;31.17;15.85;;;8.10;59.00;;;;;;5050742;28;20371;-75
2020/12/16 06:38:49;;;;;;;28.08;16.45;;;8.10;58.90;;;;;;5053991;28;20108;-76
2020/12/16 06:41:19;;;;;;;28.92;16.50;;;8.10;58.90;;;;;;5053886;28;20039;-76
2020/12/16 06:43:46;;;;;;;25.70;15.52;;;8.10;58.80;;;;;;5053875;28;20024;-75
2020/12/16 06:46:30;;;;;;;34.33;17.73;;;8.10;58.80;;;;;;5053857;28;20035;-76
2020/12/16 06:49:06;;;;;;;34.42;17.73;;;8.10;58.60;;;;;;5053813;28;20094;-76
2020/12/16 06:51:44;;;;;;;30.83;17.60;;;8.10;58.60;;;;;;5053869;28;20029;-76
2020/12/16 06:54:11;;;;;;;34.60;18.13;;;8.10;58.60;;;;;;5048994;28;20032;-75
2020/12/16 06:56:37;;;;;;;29.58;16.20;;;8.10;58.60;;;;;;5033603;28;20087;-76
2020/12/16 06:59:04;;;;;;;28.90;16.38;;;8.10;58.50;;;;;;5033619;28;20017;-76
2020/12/16 07:01:30;;;;;;;31.67;17.70;;;8.10;58.50;;;;;;5032260;28;20029;-75
2020/12/16 07:03:55;;;;;;;31.88;17.25;;;8.10;58.60;;;;;;5033451;28;20036;-77
2020/12/16 07:06:27;;;;;;;29.20;17.08;;;8.10;58.60;;;;;;5040071;28;20096;-75
2020/12/16 07:09:19;;;;;;;34.17;16.50;;;8.10;58.50;;;;;;5052800;28;20036;-76
2020/12/16 07:11:55;;;;;;;26.95;14.50;;;8.00;58.50;;;;;;5053295;28;20447;-76
2020/12/16 07:14:23;;;;;;;37.05;17.88;;;8.10;58.60;;;;;;5053242;28;20025;-75
2020/12/16 07:16:49;;;;;;;29.10;16.90;;;8.10;58.70;;;;;;5053173;28;20024;-75
2020/12/16 07:19:26;;;;;;;36.70;20.77;;;8.10;58.60;;;;;;5051872;28;20025;-76
2020/12/16 07:21:52;;;;;;;30.70;17.13;;;8.10;58.60;;;;;;5051868;28;20048;-75
2020/12/16 07:24:18;;;;;;;29.95;16.35;;;8.10;58.70;;;;;;5052923;28;20040;-75
2020/12/16 07:26:55;;;;;;;50.33;25.92;;;8.20;58.80;;;;;;5053141;28;20025;-75
2020/12/16 07:29:29;;;;;;;36.28;19.58;;;8.20;58.80;;;;;;5052943;28;20032;-75
2020/12/16 07:32:05;;;;;;;40.28;21.48;;;8.20;58.70;;;;;;5051728;28;20098;-77
2020/12/16 07:34:42;;;;;;;33.35;19.35;;;8.30;58.70;;;;;;5053124;28;20029;-75
2020/12/16 07:37:08;;;;;;;39.22;20.52;;;8.30;58.70;;;;;;5052917;28;20431;-76
2020/12/16 07:39:34;;;;;;;32.58;17.75;;;8.40;58.70;;;;;;5052748;28;20017;-76
2020/12/16 07:42:01;;;;;;;29.98;16.17;;;8.40;58.60;;;;;;5052818;28;20032;-75
2020/12/16 07:44:27;;;;;;;26.80;15.55;;;8.50;58.60;;;;;;5052718;28;20048;-75
2020/12/16 07:47:01;;;;;;;29.23;16.77;;;8.50;58.60;;;;;;5052776;28;20028;-76
2020/12/16 07:49:29;;;;;;;28.90;15.80;;;8.50;58.50;;;;;;5052664;28;20023;-75
2020/12/16 07:52:01;;;;;;;29.92;16.65;;;8.60;58.50;;;;;;5052673;28;20029;-75
2020/12/16 07:54:27;;;;;;;32.67;17.05;;;8.60;58.50;;;;;;5047845;28;20030;-75
2020/12/16 07:56:53;;;;;;;33.10;16.67;;;8.70;58.50;;;;;;5032651;28;20023;-77
2020/12/16 07:59:19;;;;;;;29.90;16.70;;;8.70;58.50;;;;;;5032620;28;20517;-76
2020/12/16 08:01:45;;;;;;;40.15;20.20;;;8.70;58.40;;;;;;5032610;28;20017;-76
2020/12/16 08:04:16;;;;;;;31.92;15.27;;;8.70;58.30;;;;;;5031408;28;20030;-77
2020/12/16 08:06:42;;;;;;;34.00;16.92;;;8.70;58.40;;;;;;5052523;28;20021;-75
2020/12/16 08:09:08;;;;;;;30.17;15.77;;;8.80;58.40;;;;;;5052443;28;20509;-76
2020/12/16 08:11:34;;;;;;;28.15;15.90;;;8.80;58.40;;;;;;5052434;28;20483;-75
2020/12/16 08:14:07;;;;;;;28.85;15.45;;;8.80;58.40;;;;;;5052446;28;20443;-75
2020/12/16 08:16:34;;;;;;;30.33;16.07;;;8.80;58.40;;;;;;5052419;28;20420;-75
2020/12/16 08:19:01;;;;;;;28.98;15.25;;;8.90;58.30;;;;;;5052254;28;20104;-76
2020/12/16 08:21:27;;;;;;;29.73;15.15;;;8.90;58.30;;;;;;5055744;28;20029;-77
2020/12/16 08:23:55;;;;;;;26.48;14.10;;;8.90;58.30;;;;;;5055967;28;20100;-76
2020/12/16 08:26:24;;;;;;;30.85;16.02;;;9.00;58.30;;;;;;5055061;28;20029;-77
2020/12/16 08:28:50;;;;;;;30.70;16.35;;;9.00;58.10;;;;;;5056255;28;20021;-76
2020/12/16 08:31:21;;;;;;;31.77;15.25;;;9.00;58.10;;;;;;5056389;28;20075;-75
2020/12/16 08:33:50;;;;;;;30.33;16.38;;;9.00;58.10;;;;;;5056263;28;20024;-76
2020/12/16 08:36:24;;;;;;;36.30;17.33;;;9.10;58.10;;;;;;5054843;28;20033;-75
2020/12/16 08:38:51;;;;;;;29.98;15.73;;;9.10;58.70;;;;;;5056224;28;20020;-76
2020/12/16 08:41:26;;;;;;;28.20;15.85;;;9.20;58.00;;;;;;5056077;28;20047;-75
2020/12/16 08:43:53;;;;;;;26.95;14.57;;;9.20;57.90;;;;;;5054750;28;20024;-75
2020/12/16 08:46:23;;;;;;;27.38;15.07;;;9.20;57.90;;;;;;5056102;28;20036;-76
2020/12/16 08:48:52;;;;;;;27.67;14.95;;;9.30;57.90;;;;;;5055871;28;20386;-75
2020/12/16 08:51:31;;;;;;;29.10;15.25;;;9.30;57.90;;;;;;5054759;28;20025;-76
2020/12/16 08:53:59;;;;;;;31.33;15.95;;;9.40;57.90;;;;;;5040244;28;20367;-76
2020/12/16 08:56:28;;;;;;;33.13;17.45;;;9.50;57.70;;;;;;5051188;28;20030;-75
2020/12/16 08:59:04;;;;;;;32.15;15.18;;;9.50;57.50;;;;;;5051149;28;20025;-77
2020/12/16 09:01:31;;;;;;;29.65;15.30;;;9.50;57.40;;;;;;5035688;28;20483;-75
2020/12/16 09:03:57;;;;;;;27.17;14.45;;;9.60;57.40;;;;;;5054292;28;20166;-75
2020/12/16 09:06:23;;;;;;;25.67;13.32;;;9.60;57.40;;;;;;5054285;28;20104;-77
2020/12/16 09:08:49;;;;;;;29.17;14.90;;;9.70;57.50;;;;;;5055690;28;20514;-75
2020/12/16 09:11:19;;;;;;;31.13;16.60;;;9.70;57.40;;;;;;5054290;28;20033;-77
2020/12/16 09:13:45;;;;;;;26.35;14.07;;;9.80;57.00;;;;;;5055589;28;20437;-76
2020/12/16 09:16:21;;;;;;;29.63;15.93;;;9.80;57.50;;;;;;5054108;28;20386;-76
2020/12/16 09:18:48;;;;;;;33.63;17.13;;;9.90;56.90;;;;;;5055510;28;20429;-76
2020/12/16 09:21:17;;;;;;;29.20;16.23;;;9.90;56.70;;;;;;5055718;28;20025;-75
2020/12/16 09:23:43;;;;;;;33.03;16.83;;;9.90;56.20;;;;;;5055199;28;20074;-76
2020/12/16 09:26:09;;;;;;;28.33;15.68;;;9.90;56.10;;;;;;5055599;28;20032;-76
2020/12/16 09:28:37;;;;;;;23.70;13.88;;;9.90;56.20;;;;;;5055570;28;20025;-77
2020/12/16 09:31:17;;;;;;;30.50;15.45;;;10.00;56.50;;;;;;5057413;28;20043;-76
2020/12/16 09:33:57;;;;;;;26.65;14.35;;;10.00;56.30;;;;;;5054174;28;20383;-76
2020/12/16 09:36:27;;;;;;;27.05;14.95;;;10.00;56.30;;;;;;5055134;28;20028;-77
2020/12/16 09:39:02;;;;;;;25.13;14.05;;;10.00;56.30;;;;;;5055026;28;20108;-76
2020/12/16 09:41:28;;;;;;;27.35;14.80;;;10.10;56.30;;;;;;5065075;28;20392;-77
2020/12/16 09:43:54;;;;;;;26.50;13.85;;;10.10;56.60;;;;;;5074704;28;20025;-76
2020/12/16 09:46:26;;;;;;;26.00;14.48;;;10.20;56.60;;;;;;5075025;28;20067;-76
2020/12/16 09:49:00;;;;;;;35.30;14.77;;;10.20;56.40;;;;;;5075117;28;20032;-77
2020/12/16 09:51:25;;;;;;;24.83;13.43;;;10.30;56.20;;;;;;5055951;28;20087;-76
2020/12/16 09:53:52;;;;;;;31.52;15.88;;;10.30;56.10;;;;;;5040444;28;20033;-76
2020/12/16 09:56:22;;;;;;;25.98;13.65;;;10.30;55.90;;;;;;5034992;28;20109;-77
2020/12/16 09:58:48;;;;;;;25.67;14.60;;;10.30;56.00;;;;;;5034898;28;20026;-76
2020/12/16 10:01:14;;;;;;;26.98;13.85;;;10.30;56.10;;;;;;5034934;28;20029;-76
2020/12/16 10:03:40;;;;;;;31.60;16.45;;;10.40;56.10;;;;;;5050231;28;20026;-77
2020/12/16 10:06:11;;;;;;;31.73;15.50;;;10.40;56.40;;;;;;5060143;28;20035;-77
2020/12/16 10:08:37;;;;;;;27.35;13.88;;;10.40;55.60;;;;;;5075128;28;20035;-77
2020/12/16 10:11:02;;;;;;;29.10;14.90;;;10.50;55.50;;;;;;5071581;28;20382;-76
2020/12/16 10:13:28;;;;;;;30.77;14.48;;;10.50;55.50;;;;;;5050928;28;20037;-76
2020/12/16 10:15:54;;;;;;;23.58;13.15;;;10.50;55.40;;;;;;5053320;28;20112;-76
2020/12/16 10:18:20;;;;;;;28.45;14.85;;;10.50;55.40;;;;;;5048532;28;20021;-76
2020/12/16 10:20:45;;;;;;;31.65;16.35;;;10.50;55.30;;;;;;5047937;28;20103;-76
2020/12/16 10:23:11;;;;;;;23.85;12.60;;;10.50;55.20;;;;;;5051711;28;20027;-77
2020/12/16 10:25:37;;;;;;;33.28;14.70;;;10.60;55.40;;;;;;5055233;28;20037;-77
2020/12/16 10:28:05;;;;;;;32.30;14.38;;;10.50;55.30;;;;;;5054503;28;20068;-77
2020/12/16 10:30:31;;;;;;;28.92;14.90;;;10.60;55.50;;;;;;5053225;28;20025;-77
2020/12/16 10:32:57;;;;;;;30.58;15.40;;;10.60;55.40;;;;;;5045758;28;20039;-76
2020/12/16 10:35:24;;;;;;;27.50;15.40;;;10.70;55.40;;;;;;5053743;28;20024;-75
2020/12/16 10:37:50;;;;;;;32.33;15.63;;;10.70;55.30;;;;;;5053612;28;20021;-76
2020/12/16 10:40:16;;;;;;;31.38;14.57;;;10.80;55.30;;;;;;5053080;28;20021;-77
2020/12/16 10:42:42;;;;;;;30.88;14.13;;;10.90;55.20;;;;;;5052930;28;20021;-75
2020/12/16 10:45:07;;;;;;;26.55;14.38;;;10.90;55.10;;;;;;5054066;28;20104;-76
2020/12/16 10:47:33;;;;;;;31.45;14.85;;;11.00;54.90;;;;;;5053973;28;20029;-75
2020/12/16 10:50:00;;;;;;;27.88;14.48;;;11.10;54.90;;;;;;5053821;28;20043;-76
2020/12/16 10:52:25;;;;;;;25.85;14.90;;;11.10;54.70;;;;;;5053698;28;20025;-77
2020/12/16 10:54:51;;;;;;;33.03;16.55;;;11.20;54.60;;;;;;5053735;28;20029;-76
2020/12/16 10:57:19;;;;;;;42.83;18.80;;;11.20;54.40;;;;;;5053754;28;20029;-78
2020/12/16 10:59:47;;;;;;;37.95;17.15;;;11.20;54.10;;;;;;5053742;28;20013;-77
2020/12/16 11:02:13;;;;;;;29.63;15.45;;;11.20;53.90;;;;;;5052097;28;20063;-77
2020/12/16 11:04:38;;;;;;;29.90;16.35;;;11.20;54.00;;;;;;5052184;28;20512;-76
2020/12/16 11:07:05;;;;;;;31.13;15.57;;;11.30;54.00;;;;;;5051978;28;20039;-77
2020/12/16 11:09:30;;;;;;;30.08;15.55;;;11.20;54.00;;;;;;5053383;28;20054;-76
2020/12/16 11:11:56;;;;;;;26.92;16.08;;;11.20;54.00;;;;;;5052109;28;20482;-77
2020/12/16 11:14:22;;;;;;;27.58;15.18;;;11.20;53.80;;;;;;5053592;28;20488;-76
2020/12/16 11:16:48;;;;;;;36.72;17.30;;;11.20;53.90;;;;;;5049011;28;20065;-76
2020/12/16 11:19:16;;;;;;;33.25;17.63;;;11.20;53.90;;;;;;5057633;28;20387;-77
2020/12/16 11:21:47;;;;;;;34.53;18.73;;;11.20;53.70;;;;;;5054044;28;20021;-77
2020/12/16 11:24:15;;;;;;;39.40;20.00;;;11.20;53.70;;;;;;5053777;28;20037;-77
2020/12/16 11:26:47;;;;;;;48.58;22.83;;;11.20;53.80;;;;;;5053949;28;20028;-76
2020/12/16 11:29:14;;;;;;;34.20;19.38;;;11.20;53.70;;;;;;5062946;28;20362;-78
2020/12/16 11:31:43;;;;;;;42.95;21.30;;;11.20;53.90;;;;;;5060969;28;20116;-78
2020/12/16 11:34:09;;;;;;;36.38;21.08;;;11.20;53.90;;;;;;5054878;28;20025;-77
2020/12/16 11:36:40;;;;;;;42.67;20.45;;;11.20;53.90;;;;;;5066378;28;20028;-77
2020/12/16 11:39:06;;;;;;;41.05;23.20;;;11.30;53.90;;;;;;5066539;28;20433;-78
2020/12/16 11:41:33;;;;;;;49.67;26.95;;;11.30;53.70;;;;;;5053247;28;20017;-76
2020/12/16 11:43:59;;;;;;;67.95;34.20;;;11.20;53.40;;;;;;5068299;28;20100;-76
2020/12/16 11:46:31;;;;;;;68.68;36.00;;;11.20;53.20;;;;;;5057494;28;20108;-76
2020/12/16 11:48:57;;;;;;;66.90;35.78;;;11.10;53.00;;;;;;5063020;28;20055;-77
2020/12/16 11:51:24;;;;;;;75.35;35.15;;;11.20;53.30;;;;;;5071153;28;20052;-76
2020/12/16 11:53:50;;;;;;;52.60;29.55;;;11.10;53.30;;;;;;5063938;28;20024;-76
2020/12/16 11:56:15;;;;;;;46.13;25.10;;;11.10;53.60;;;;;;5051826;28;20382;-76
2020/12/16 11:58:41;;;;;;;43.60;22.90;;;11.10;54.10;;;;;;5053060;28;20082;-76
2020/12/16 12:01:11;;;;;;;45.15;20.95;;;11.10;53.50;;;;;;5053016;28;20416;-77
2020/12/16 12:03:36;;;;;;;33.97;19.42;;;11.10;53.20;;;;;;5051273;28;20367;-76
2020/12/16 12:06:02;;;;;;;33.13;18.48;;;11.10;53.10;;;;;;5053078;28;20130;-77
2020/12/16 12:08:28;;;;;;;33.10;19.23;;;11.10;53.00;;;;;;5068034;28;20385;-76
2020/12/16 12:10:54;;;;;;;33.10;17.98;;;11.10;52.90;;;;;;5052624;28;20394;-78
2020/12/16 12:13:19;;;;;;;29.15;17.15;;;11.10;52.90;;;;;;5047427;28;20033;-77
2020/12/16 12:15:45;;;;;;;32.35;17.17;;;11.10;53.00;;;;;;5033496;28;20122;-78
2020/12/16 12:18:11;;;;;;;29.92;16.98;;;11.10;52.90;;;;;;5039086;28;20461;-76
2020/12/16 12:20:37;;;;;;;32.15;18.45;;;11.10;52.80;;;;;;5052957;28;20025;-76
2020/12/16 12:23:02;;;;;;;40.40;19.23;;;11.10;52.80;;;;;;5053279;28;20462;-75
2020/12/16 12:25:28;;;;;;;32.25;18.08;;;11.00;52.60;;;;;;5051271;28;20040;-77
2020/12/16 12:27:54;;;;;;;33.88;18.27;;;11.00;52.60;;;;;;5051905;28;20021;-73
2020/12/16 12:30:19;;;;;;;35.05;20.17;;;10.90;52.70;;;;;;5052576;28;20037;-72
2020/12/16 12:32:45;;;;;;;33.45;19.48;;;10.90;52.70;;;;;;5052145;28;20502;-73
2020/12/16 12:35:11;;;;;;;34.78;19.17;;;10.80;52.50;;;;;;5033416;28;20053;-74
2020/12/16 12:37:36;;;;;;;30.67;18.05;;;10.80;52.60;;;;;;5039406;28;20028;-72